createdAt,value
2022-12-15T00:04:20.016Z,53.00
2022-12-15T00:14:42.305Z,54.00
2022-12-15T00:25:04.867Z,46.80
2022-12-15T00:35:28.242Z,44.00
2022-12-15T00:45:50.656Z,128.10
2022-12-15T00:56:13.170Z,125.00
2022-12-15T01:06:38.383Z,38.00
2022-12-15T01:17:01.132Z,38.50
2022-12-15T01:27:04.991Z,41.10
2022-12-15T01:37:08.932Z,34.00
2022-12-15T01:47:14.441Z,32.30
2022-12-15T01:57:22.914Z,32.70
2022-12-15T02:07:27.159Z,33.40
2022-12-15T02:18:08.652Z,32.90
2022-12-15T02:28:50.179Z,472.80
2022-12-15T02:38:53.821Z,57.10
2022-12-15T02:49:24.009Z,31.50
2022-12-15T02:59:55.812Z,32.70
2022-12-15T03:10:04.646Z,34.40
2022-12-15T03:20:12.248Z,32.60
2022-12-15T03:30:17.072Z,32.60
2022-12-15T03:40:22.581Z,32.60
2022-12-15T03:50:29.857Z,35.40
2022-12-15T04:00:34.152Z,35.70
2022-12-15T04:10:40.635Z,32.70
2022-12-15T04:20:44.379Z,33.50
2022-12-15T04:31:12.436Z,39.30
2022-12-15T04:41:37.318Z,38.90
2022-12-15T04:51:59.651Z,83.30
2022-12-15T05:02:22.127Z,60.20
2022-12-15T05:12:44.882Z,58.60
2022-12-15T05:23:12.865Z,43.00
2022-12-15T05:33:16.475Z,41.80
2022-12-15T05:43:24.771Z,40.70
2022-12-15T05:53:30.408Z,475.90
2022-12-15T06:03:35.147Z,35.20
2022-12-15T06:13:38.993Z,40.10
2022-12-15T06:23:43.158Z,52.20
2022-12-15T06:33:48.601Z,210.60
2022-12-15T06:43:55.971Z,61.60
2022-12-15T06:53:59.679Z,68.50
2022-12-15T07:04:06.096Z,56.10
2022-12-15T07:14:11.498Z,36.10
2022-12-15T07:24:18.930Z,100.40
2022-12-15T07:34:23.034Z,39.20
2022-12-15T07:44:26.682Z,46.40
2022-12-15T07:54:30.928Z,48.10
2022-12-15T08:04:34.652Z,49.70
2022-12-15T08:14:38.496Z,42.00
2022-12-15T08:24:42.462Z,47.30
2022-12-15T08:34:49.547Z,50.30
2022-12-15T08:44:56.866Z,61.20
2022-12-15T08:55:04.207Z,53.40
2022-12-15T09:05:09.124Z,48.10
2022-12-15T09:15:13.207Z,48.50
2022-12-15T09:25:16.933Z,49.30
2022-12-15T09:35:20.967Z,49.40
2022-12-15T09:45:31.544Z,47.70
2022-12-15T09:55:38.074Z,215.20
2022-12-15T10:06:21.445Z,44.10
2022-12-15T10:16:50.209Z,42.20
2022-12-15T10:27:17.435Z,38.50
2022-12-15T10:37:26.453Z,37.40
2022-12-15T10:47:32.317Z,35.00
2022-12-15T10:57:36.190Z,36.20
2022-12-15T11:07:41.225Z,34.70
2022-12-15T11:17:45.088Z,584.00
2022-12-15T11:27:54.272Z,22.40
2022-12-15T11:38:12.062Z,24.80
2022-12-15T11:48:43.221Z,22.90
2022-12-15T11:59:24.178Z,30.40
2022-12-15T12:09:52.316Z,361.10
2022-12-15T12:20:03.870Z,367.50
2022-12-15T12:30:18.247Z,316.30
2022-12-15T12:40:50.304Z,324.40
2022-12-15T12:51:18.851Z,331.40
2022-12-15T13:01:34.840Z,313.00
2022-12-15T13:13:03.841Z,322.70
2022-12-15T13:22:54.870Z,315.50
2022-12-15T13:33:19.560Z,319.30
2022-12-15T13:43:48.895Z,311.90
2022-12-15T13:54:21.961Z,308.20
2022-12-15T14:04:26.407Z,308.50
2022-12-15T14:14:37.703Z,317.50
2022-12-15T14:35:26.706Z,330.40
2022-12-15T14:45:32.929Z,314.30
2022-12-15T14:55:38.676Z,317.90
2022-12-15T15:03:14.311Z,311.20
2022-12-15T15:05:47.063Z,263.20
2022-12-15T15:16:06.729Z,256.60
2022-12-15T15:26:14.177Z,228.80
2022-12-15T15:36:17.726Z,331.40
2022-12-15T15:46:28.426Z,340.30
2022-12-15T15:56:32.258Z,365.00
2022-12-15T16:06:43.485Z,328.90
2022-12-15T16:16:50.391Z,331.00
2022-12-15T16:26:54.284Z,344.60
2022-12-15T16:37:00.727Z,342.00
2022-12-15T16:47:04.408Z,329.80
2022-12-15T16:57:12.312Z,365.10
2022-12-15T17:07:20.007Z,356.90
2022-12-15T17:17:26.598Z,332.10
2022-12-15T17:27:30.574Z,178.90
2022-12-15T17:37:35.516Z,245.70
2022-12-15T17:47:39.291Z,325.40
2022-12-15T17:57:43.096Z,316.80
2022-12-15T18:07:50.678Z,350.10
2022-12-15T18:17:54.825Z,176.30
2022-12-15T18:28:00.266Z,307.60
2022-12-15T18:38:14.713Z,279.70
2022-12-15T18:48:40.077Z,146.80
2022-12-15T18:58:43.948Z,139.30
2022-12-15T19:08:50.798Z,276.20
2022-12-15T19:19:17.201Z,331.70
2022-12-15T19:29:22.232Z,173.30
2022-12-15T19:39:27.759Z,200.80
2022-12-15T19:49:31.409Z,201.00
2022-12-15T19:59:35.064Z,328.40
2022-12-15T20:09:40.317Z,366.90
2022-12-15T20:19:46.482Z,347.60
2022-12-15T20:29:50.425Z,367.80
2022-12-15T20:39:57.818Z,341.60
2022-12-15T20:50:01.921Z,341.80
2022-12-15T21:00:06.745Z,333.10
2022-12-15T21:10:12.606Z,339.00
2022-12-15T21:20:16.432Z,340.50
2022-12-15T21:30:22.716Z,341.40
2022-12-15T21:40:29.127Z,328.20
2022-12-15T21:50:34.665Z,330.10
2022-12-15T22:00:42.324Z,329.70
2022-12-15T22:10:51.938Z,332.40
2022-12-15T22:20:56.504Z,330.10
2022-12-15T22:31:03.662Z,325.90
2022-12-15T22:41:23.988Z,323.00
2022-12-15T22:51:27.612Z,246.50
2022-12-15T23:01:31.633Z,327.30
2022-12-15T23:11:38.111Z,329.90
2022-12-15T23:21:41.958Z,330.70
2022-12-15T23:31:45.584Z,330.70
2022-12-15T23:41:49.240Z,328.00
2022-12-15T23:51:52.904Z,330.00
